Norup, Denmark
Current Conditions -  °F | °C
As of 11:20 PM on Sunday 21 Dec 2014 (Local Time) from EKBI Reporting Station
Light Rain Light Rain  
Wind Chill: 39°   Ceiling: 500
Heat Index: 46°   Visibility: 3mi
Dew Point: 46°   Wind: 17mph
Humidity: 100%   Direction: 240°WSW
Pressure: 29.62"   Gusts: NA
Location:  55.72°N, 9.32°E
Report Text: EKBI 212220Z 24015KT 5000 -DZRA FEW004 BKN005 08/08 Q1003
Loading
Personal Weather Stations






























Interactive Weather Map New forecast layout! Learn more

10-Day Weather Forecast

Advertisements
Track Severe Weather on mobile